sensor_id;sensor_type;location;lat;lon;timestamp;P1;durP1;ratioP1;P2;durP2;ratioP2
80334;SDS011;69653;52.674;13.574;2024-03-02T00:01:53;47.28;;;21.88;;
80334;SDS011;69653;52.674;13.574;2024-03-02T00:04:18;42.77;;;21.43;;
80334;SDS011;69653;52.674;13.574;2024-03-02T00:06:43;45.53;;;21.57;;
80334;SDS011;69653;52.674;13.574;2024-03-02T00:09:09;44.60;;;21.17;;
80334;SDS011;69653;52.674;13.574;2024-03-02T00:11:37;46.55;;;23.45;;
80334;SDS011;69653;52.674;13.574;2024-03-02T00:14:02;41.13;;;22.37;;
80334;SDS011;69653;52.674;13.574;2024-03-02T00:16:31;39.33;;;21.43;;
80334;SDS011;69653;52.674;13.574;2024-03-02T00:18:56;38.75;;;20.77;;
80334;SDS011;69653;52.674;13.574;2024-03-02T00:21:26;40.17;;;21.98;;
80334;SDS011;69653;52.674;13.574;2024-03-02T00:23:52;44.53;;;21.90;;
80334;SDS011;69653;52.674;13.574;2024-03-02T00:26:18;42.47;;;22.30;;
80334;SDS011;69653;52.674;13.574;2024-03-02T00:28:43;41.43;;;21.83;;
80334;SDS011;69653;52.674;13.574;2024-03-02T00:31:11;40.30;;;21.92;;
80334;SDS011;69653;52.674;13.574;2024-03-02T00:33:43;42.58;;;20.90;;
80334;SDS011;69653;52.674;13.574;2024-03-02T00:36:10;39.25;;;20.33;;
80334;SDS011;69653;52.674;13.574;2024-03-02T00:38:41;40.47;;;21.00;;
80334;SDS011;69653;52.674;13.574;2024-03-02T00:41:07;41.45;;;21.30;;
80334;SDS011;69653;52.674;13.574;2024-03-02T00:46:00;41.63;;;20.65;;
80334;SDS011;69653;52.674;13.574;2024-03-02T00:48:26;43.63;;;20.73;;
80334;SDS011;69653;52.674;13.574;2024-03-02T00:50:51;42.30;;;22.40;;
80334;SDS011;69653;52.674;13.574;2024-03-02T00:53:23;41.78;;;21.33;;
80334;SDS011;69653;52.674;13.574;2024-03-02T00:55:49;43.03;;;21.38;;
80334;SDS011;69653;52.674;13.574;2024-03-02T00:58:14;44.40;;;22.23;;
80334;SDS011;69653;52.674;13.574;2024-03-02T01:00:39;40.37;;;20.87;;
80334;SDS011;69653;52.674;13.574;2024-03-02T01:03:05;41.37;;;19.83;;
80334;SDS011;69653;52.674;13.574;2024-03-02T01:05:30;41.93;;;21.47;;
80334;SDS011;69653;52.674;13.574;2024-03-02T01:07:55;41.83;;;22.40;;
80334;SDS011;69653;52.674;13.574;2024-03-02T01:10:20;45.00;;;21.13;;
80334;SDS011;69653;52.674;13.574;2024-03-02T01:12:46;41.00;;;22.10;;
80334;SDS011;69653;52.674;13.574;2024-03-02T01:15:11;41.00;;;21.27;;
80334;SDS011;69653;52.674;13.574;2024-03-02T01:17:36;51.03;;;23.73;;
80334;SDS011;69653;52.674;13.574;2024-03-02T01:20:01;41.50;;;22.60;;
80334;SDS011;69653;52.674;13.574;2024-03-02T01:22:26;47.10;;;22.47;;
80334;SDS011;69653;52.674;13.574;2024-03-02T01:24:52;46.17;;;22.13;;
80334;SDS011;69653;52.674;13.574;2024-03-02T01:27:17;40.30;;;21.83;;
80334;SDS011;69653;52.674;13.574;2024-03-02T01:29:42;43.40;;;21.23;;
80334;SDS011;69653;52.674;13.574;2024-03-02T01:32:07;48.67;;;22.70;;
80334;SDS011;69653;52.674;13.574;2024-03-02T01:34:32;47.87;;;23.37;;
80334;SDS011;69653;52.674;13.574;2024-03-02T01:36:57;45.93;;;23.33;;
80334;SDS011;69653;52.674;13.574;2024-03-02T01:39:23;45.10;;;23.40;;
80334;SDS011;69653;52.674;13.574;2024-03-02T01:41:48;45.00;;;23.67;;
80334;SDS011;69653;52.674;13.574;2024-03-02T01:44:13;45.73;;;24.53;;
80334;SDS011;69653;52.674;13.574;2024-03-02T01:46:38;47.67;;;23.57;;
80334;SDS011;69653;52.674;13.574;2024-03-02T01:49:03;49.77;;;23.40;;
80334;SDS011;69653;52.674;13.574;2024-03-02T01:51:29;40.63;;;22.42;;
80334;SDS011;69653;52.674;13.574;2024-03-02T01:53:54;52.90;;;25.27;;
80334;SDS011;69653;52.674;13.574;2024-03-02T01:56:20;45.45;;;23.83;;
80334;SDS011;69653;52.674;13.574;2024-03-02T01:58:45;45.28;;;23.52;;
80334;SDS011;69653;52.674;13.574;2024-03-02T02:01:10;45.40;;;24.03;;
80334;SDS011;69653;52.674;13.574;2024-03-02T02:03:35;45.80;;;23.53;;
80334;SDS011;69653;52.674;13.574;2024-03-02T02:06:02;48.63;;;24.70;;
80334;SDS011;69653;52.674;13.574;2024-03-02T02:08:27;46.00;;;22.67;;
80334;SDS011;69653;52.674;13.574;2024-03-02T02:10:52;51.23;;;26.27;;
80334;SDS011;69653;52.674;13.574;2024-03-02T02:13:17;48.63;;;24.47;;
80334;SDS011;69653;52.674;13.574;2024-03-02T02:15:43;54.50;;;25.52;;
80334;SDS011;69653;52.674;13.574;2024-03-02T02:18:08;49.33;;;23.23;;
80334;SDS011;69653;52.674;13.574;2024-03-02T02:20:33;52.80;;;25.63;;
80334;SDS011;69653;52.674;13.574;2024-03-02T02:22:59;51.90;;;25.33;;
80334;SDS011;69653;52.674;13.574;2024-03-02T02:25:25;47.78;;;24.88;;
80334;SDS011;69653;52.674;13.574;2024-03-02T02:27:50;50.25;;;23.90;;
80334;SDS011;69653;52.674;13.574;2024-03-02T02:30:22;47.93;;;25.70;;
80334;SDS011;69653;52.674;13.574;2024-03-02T02:32:48;55.38;;;25.98;;
80334;SDS011;69653;52.674;13.574;2024-03-02T02:35:13;55.13;;;27.17;;
80334;SDS011;69653;52.674;13.574;2024-03-02T02:37:39;56.10;;;27.93;;
80334;SDS011;69653;52.674;13.574;2024-03-02T02:40:04;57.43;;;26.67;;
80334;SDS011;69653;52.674;13.574;2024-03-02T02:42:30;58.88;;;28.05;;
80334;SDS011;69653;52.674;13.574;2024-03-02T02:44:55;62.90;;;28.87;;
80334;SDS011;69653;52.674;13.574;2024-03-02T02:47:20;57.80;;;28.30;;
80334;SDS011;69653;52.674;13.574;2024-03-02T02:49:45;63.37;;;29.33;;
80334;SDS011;69653;52.674;13.574;2024-03-02T02:52:11;65.35;;;32.55;;
80334;SDS011;69653;52.674;13.574;2024-03-02T02:54:37;67.93;;;31.47;;
80334;SDS011;69653;52.674;13.574;2024-03-02T02:57:02;61.17;;;30.40;;
80334;SDS011;69653;52.674;13.574;2024-03-02T02:59:28;69.70;;;31.63;;
80334;SDS011;69653;52.674;13.574;2024-03-02T03:01:53;65.63;;;31.50;;
80334;SDS011;69653;52.674;13.574;2024-03-02T03:04:19;63.45;;;29.73;;
80334;SDS011;69653;52.674;13.574;2024-03-02T03:06:44;63.30;;;29.07;;
80334;SDS011;69653;52.674;13.574;2024-03-02T03:09:09;61.23;;;30.70;;
80334;SDS011;69653;52.674;13.574;2024-03-02T03:11:36;63.90;;;32.22;;
80334;SDS011;69653;52.674;13.574;2024-03-02T03:14:01;57.97;;;29.13;;
80334;SDS011;69653;52.674;13.574;2024-03-02T03:16:26;61.20;;;29.67;;
80334;SDS011;69653;52.674;13.574;2024-03-02T03:18:51;64.43;;;29.97;;
80334;SDS011;69653;52.674;13.574;2024-03-02T03:21:18;61.20;;;30.00;;
80334;SDS011;69653;52.674;13.574;2024-03-02T03:23:43;60.70;;;30.00;;
80334;SDS011;69653;52.674;13.574;2024-03-02T03:26:08;68.97;;;30.13;;
80334;SDS011;69653;52.674;13.574;2024-03-02T03:28:34;69.80;;;30.40;;
80334;SDS011;69653;52.674;13.574;2024-03-02T03:30:59;70.17;;;32.17;;
80334;SDS011;69653;52.674;13.574;2024-03-02T03:33:24;73.33;;;35.07;;
80334;SDS011;69653;52.674;13.574;2024-03-02T03:35:49;67.00;;;32.00;;
80334;SDS011;69653;52.674;13.574;2024-03-02T03:38:14;68.07;;;32.87;;
80334;SDS011;69653;52.674;13.574;2024-03-02T03:40:39;66.83;;;31.30;;
80334;SDS011;69653;52.674;13.574;2024-03-02T03:43:05;69.27;;;33.00;;
80334;SDS011;69653;52.674;13.574;2024-03-02T03:45:30;63.07;;;32.07;;
80334;SDS011;69653;52.674;13.574;2024-03-02T03:47:55;70.37;;;34.33;;
80334;SDS011;69653;52.674;13.574;2024-03-02T03:50:20;68.73;;;31.00;;
80334;SDS011;69653;52.674;13.574;2024-03-02T03:52:46;68.73;;;31.53;;
80334;SDS011;69653;52.674;13.574;2024-03-02T03:55:11;71.90;;;33.40;;
80334;SDS011;69653;52.674;13.574;2024-03-02T03:57:36;66.37;;;33.07;;
80334;SDS011;69653;52.674;13.574;2024-03-02T04:00:01;65.67;;;31.20;;
80334;SDS011;69653;52.674;13.574;2024-03-02T04:02:27;66.22;;;30.42;;
80334;SDS011;69653;52.674;13.574;2024-03-02T04:04:52;63.27;;;30.77;;
80334;SDS011;69653;52.674;13.574;2024-03-02T04:07:17;62.07;;;31.23;;
80334;SDS011;69653;52.674;13.574;2024-03-02T04:09:43;61.25;;;30.00;;
80334;SDS011;69653;52.674;13.574;2024-03-02T04:12:08;57.60;;;29.40;;
80334;SDS011;69653;52.674;13.574;2024-03-02T04:14:33;54.40;;;28.20;;
80334;SDS011;69653;52.674;13.574;2024-03-02T04:16:58;68.43;;;28.37;;
80334;SDS011;69653;52.674;13.574;2024-03-02T04:19:23;62.50;;;29.40;;
80334;SDS011;69653;52.674;13.574;2024-03-02T04:21:49;61.40;;;30.87;;
80334;SDS011;69653;52.674;13.574;2024-03-02T04:24:14;60.57;;;29.53;;
80334;SDS011;69653;52.674;13.574;2024-03-02T04:26:39;62.70;;;30.37;;
80334;SDS011;69653;52.674;13.574;2024-03-02T04:29:04;60.77;;;29.07;;
80334;SDS011;69653;52.674;13.574;2024-03-02T04:31:29;62.60;;;30.60;;
80334;SDS011;69653;52.674;13.574;2024-03-02T04:33:55;61.87;;;28.60;;
80334;SDS011;69653;52.674;13.574;2024-03-02T04:36:20;64.57;;;32.10;;
80334;SDS011;69653;52.674;13.574;2024-03-02T04:38:46;60.03;;;28.33;;
80334;SDS011;69653;52.674;13.574;2024-03-02T04:41:11;63.97;;;31.03;;
80334;SDS011;69653;52.674;13.574;2024-03-02T04:43:36;56.20;;;26.93;;
80334;SDS011;69653;52.674;13.574;2024-03-02T04:46:01;52.73;;;27.40;;
80334;SDS011;69653;52.674;13.574;2024-03-02T04:48:27;55.43;;;27.00;;
80334;SDS011;69653;52.674;13.574;2024-03-02T04:50:52;50.30;;;25.97;;
80334;SDS011;69653;52.674;13.574;2024-03-02T04:53:17;49.20;;;27.77;;
80334;SDS011;69653;52.674;13.574;2024-03-02T04:55:42;55.47;;;28.23;;
80334;SDS011;69653;52.674;13.574;2024-03-02T04:58:08;57.77;;;29.60;;
80334;SDS011;69653;52.674;13.574;2024-03-02T05:00:33;59.33;;;27.77;;
80334;SDS011;69653;52.674;13.574;2024-03-02T05:02:58;60.13;;;27.17;;
80334;SDS011;69653;52.674;13.574;2024-03-02T05:05:23;53.07;;;26.63;;
80334;SDS011;69653;52.674;13.574;2024-03-02T05:07:49;51.60;;;26.67;;
80334;SDS011;69653;52.674;13.574;2024-03-02T05:10:14;54.13;;;27.33;;
80334;SDS011;69653;52.674;13.574;2024-03-02T05:12:39;51.60;;;26.73;;
80334;SDS011;69653;52.674;13.574;2024-03-02T05:15:07;52.00;;;25.88;;
80334;SDS011;69653;52.674;13.574;2024-03-02T05:17:33;53.83;;;27.20;;
80334;SDS011;69653;52.674;13.574;2024-03-02T05:19:58;51.85;;;25.45;;
80334;SDS011;69653;52.674;13.574;2024-03-02T05:22:24;53.10;;;26.90;;
80334;SDS011;69653;52.674;13.574;2024-03-02T05:24:49;49.23;;;27.30;;
80334;SDS011;69653;52.674;13.574;2024-03-02T05:27:14;50.93;;;26.77;;
80334;SDS011;69653;52.674;13.574;2024-03-02T05:29:39;51.83;;;27.37;;
80334;SDS011;69653;52.674;13.574;2024-03-02T05:32:05;50.03;;;25.80;;
80334;SDS011;69653;52.674;13.574;2024-03-02T05:34:30;53.23;;;26.60;;
80334;SDS011;69653;52.674;13.574;2024-03-02T05:36:55;51.00;;;25.92;;
80334;SDS011;69653;52.674;13.574;2024-03-02T05:39:22;54.65;;;25.17;;
80334;SDS011;69653;52.674;13.574;2024-03-02T05:41:47;46.90;;;23.80;;
80334;SDS011;69653;52.674;13.574;2024-03-02T05:44:13;52.53;;;25.20;;
80334;SDS011;69653;52.674;13.574;2024-03-02T05:46:40;42.75;;;24.50;;
80334;SDS011;69653;52.674;13.574;2024-03-02T05:49:05;56.37;;;24.73;;
80334;SDS011;69653;52.674;13.574;2024-03-02T05:51:32;50.75;;;26.33;;
80334;SDS011;69653;52.674;13.574;2024-03-02T05:53:58;50.27;;;26.37;;
80334;SDS011;69653;52.674;13.574;2024-03-02T05:56:23;51.00;;;24.10;;
80334;SDS011;69653;52.674;13.574;2024-03-02T05:58:48;53.63;;;27.17;;
80334;SDS011;69653;52.674;13.574;2024-03-02T06:01:37;52.05;;;25.42;;
80334;SDS011;69653;52.674;13.574;2024-03-02T06:04:02;50.90;;;27.53;;
80334;SDS011;69653;52.674;13.574;2024-03-02T06:06:27;49.00;;;25.40;;
80334;SDS011;69653;52.674;13.574;2024-03-02T06:08:53;56.85;;;27.58;;
80334;SDS011;69653;52.674;13.574;2024-03-02T06:11:21;52.77;;;27.10;;
80334;SDS011;69653;52.674;13.574;2024-03-02T06:13:46;53.38;;;28.02;;
80334;SDS011;69653;52.674;13.574;2024-03-02T06:16:12;49.70;;;24.63;;
80334;SDS011;69653;52.674;13.574;2024-03-02T06:18:37;50.60;;;25.37;;
80334;SDS011;69653;52.674;13.574;2024-03-02T06:21:02;50.23;;;25.10;;
80334;SDS011;69653;52.674;13.574;2024-03-02T06:23:27;51.00;;;25.65;;
80334;SDS011;69653;52.674;13.574;2024-03-02T06:25:53;51.50;;;24.77;;
80334;SDS011;69653;52.674;13.574;2024-03-02T06:28:18;49.73;;;26.47;;
80334;SDS011;69653;52.674;13.574;2024-03-02T06:30:43;57.30;;;25.27;;
80334;SDS011;69653;52.674;13.574;2024-03-02T06:33:09;58.28;;;25.88;;
80334;SDS011;69653;52.674;13.574;2024-03-02T06:35:34;63.33;;;28.50;;
80334;SDS011;69653;52.674;13.574;2024-03-02T06:38:00;54.53;;;26.27;;
80334;SDS011;69653;52.674;13.574;2024-03-02T06:40:25;55.40;;;27.20;;
80334;SDS011;69653;52.674;13.574;2024-03-02T06:42:50;57.43;;;27.73;;
80334;SDS011;69653;52.674;13.574;2024-03-02T06:45:15;53.57;;;26.30;;
80334;SDS011;69653;52.674;13.574;2024-03-02T06:47:41;56.83;;;28.13;;
80334;SDS011;69653;52.674;13.574;2024-03-02T06:50:06;60.27;;;28.23;;
80334;SDS011;69653;52.674;13.574;2024-03-02T06:52:32;63.83;;;27.40;;
80334;SDS011;69653;52.674;13.574;2024-03-02T06:54:57;52.03;;;27.13;;
80334;SDS011;69653;52.674;13.574;2024-03-02T06:57:22;55.93;;;25.30;;
80334;SDS011;69653;52.674;13.574;2024-03-02T06:59:49;52.42;;;26.40;;
80334;SDS011;69653;52.674;13.574;2024-03-02T07:02:16;54.50;;;25.95;;
80334;SDS011;69653;52.674;13.574;2024-03-02T07:04:41;58.33;;;27.10;;
80334;SDS011;69653;52.674;13.574;2024-03-02T07:07:06;59.03;;;27.03;;
80334;SDS011;69653;52.674;13.574;2024-03-02T07:09:32;53.90;;;26.90;;
80334;SDS011;69653;52.674;13.574;2024-03-02T07:11:57;56.20;;;26.57;;
80334;SDS011;69653;52.674;13.574;2024-03-02T07:14:23;61.72;;;27.95;;
80334;SDS011;69653;52.674;13.574;2024-03-02T07:17:08;56.28;;;26.77;;
80334;SDS011;69653;52.674;13.574;2024-03-02T07:19:33;60.60;;;28.37;;
80334;SDS011;69653;52.674;13.574;2024-03-02T07:21:58;58.23;;;28.93;;
80334;SDS011;69653;52.674;13.574;2024-03-02T07:24:23;55.43;;;27.00;;
80334;SDS011;69653;52.674;13.574;2024-03-02T07:26:48;59.03;;;27.63;;
80334;SDS011;69653;52.674;13.574;2024-03-02T07:29:14;57.97;;;26.20;;
80334;SDS011;69653;52.674;13.574;2024-03-02T07:31:39;61.37;;;29.20;;
80334;SDS011;69653;52.674;13.574;2024-03-02T07:34:05;56.53;;;27.67;;
80334;SDS011;69653;52.674;13.574;2024-03-02T07:36:30;59.40;;;29.40;;
80334;SDS011;69653;52.674;13.574;2024-03-02T07:38:55;61.17;;;28.40;;
80334;SDS011;69653;52.674;13.574;2024-03-02T07:41:21;58.22;;;26.40;;
80334;SDS011;69653;52.674;13.574;2024-03-02T07:43:46;61.90;;;29.43;;
80334;SDS011;69653;52.674;13.574;2024-03-02T07:46:11;63.90;;;28.80;;
80334;SDS011;69653;52.674;13.574;2024-03-02T07:48:37;58.95;;;26.73;;
80334;SDS011;69653;52.674;13.574;2024-03-02T07:51:02;61.13;;;28.87;;
80334;SDS011;69653;52.674;13.574;2024-03-02T07:53:28;60.50;;;26.95;;
80334;SDS011;69653;52.674;13.574;2024-03-02T07:55:53;54.80;;;25.57;;
80334;SDS011;69653;52.674;13.574;2024-03-02T07:58:18;60.13;;;27.37;;
80334;SDS011;69653;52.674;13.574;2024-03-02T08:00:44;55.00;;;29.65;;
80334;SDS011;69653;52.674;13.574;2024-03-02T08:03:09;62.23;;;29.33;;
80334;SDS011;69653;52.674;13.574;2024-03-02T08:05:38;60.22;;;27.45;;
80334;SDS011;69653;52.674;13.574;2024-03-02T08:08:04;60.50;;;29.35;;
80334;SDS011;69653;52.674;13.574;2024-03-02T08:10:29;60.00;;;28.20;;
80334;SDS011;69653;52.674;13.574;2024-03-02T08:12:54;57.10;;;27.70;;
80334;SDS011;69653;52.674;13.574;2024-03-02T08:15:19;62.07;;;27.00;;
80334;SDS011;69653;52.674;13.574;2024-03-02T08:17:47;60.97;;;28.02;;
80334;SDS011;69653;52.674;13.574;2024-03-02T08:20:15;53.35;;;27.45;;
80334;SDS011;69653;52.674;13.574;2024-03-02T08:22:40;55.97;;;26.70;;
80334;SDS011;69653;52.674;13.574;2024-03-02T08:25:06;54.33;;;27.33;;
80334;SDS011;69653;52.674;13.574;2024-03-02T08:27:32;56.50;;;27.75;;
80334;SDS011;69653;52.674;13.574;2024-03-02T08:29:57;59.05;;;26.58;;
80334;SDS011;69653;52.674;13.574;2024-03-02T08:32:23;56.17;;;26.27;;
80334;SDS011;69653;52.674;13.574;2024-03-02T08:34:48;51.10;;;25.97;;
80334;SDS011;69653;52.674;13.574;2024-03-02T08:37:13;53.67;;;25.83;;
80334;SDS011;69653;52.674;13.574;2024-03-02T08:39:38;49.57;;;26.37;;
80334;SDS011;69653;52.674;13.574;2024-03-02T08:42:03;53.53;;;28.33;;
80334;SDS011;69653;52.674;13.574;2024-03-02T08:44:29;54.78;;;26.27;;
80334;SDS011;69653;52.674;13.574;2024-03-02T08:46:54;48.73;;;23.03;;
80334;SDS011;69653;52.674;13.574;2024-03-02T08:49:19;55.80;;;25.97;;
80334;SDS011;69653;52.674;13.574;2024-03-02T08:51:45;56.87;;;26.33;;
80334;SDS011;69653;52.674;13.574;2024-03-02T08:54:10;53.30;;;24.87;;
80334;SDS011;69653;52.674;13.574;2024-03-02T08:56:35;48.43;;;24.93;;
80334;SDS011;69653;52.674;13.574;2024-03-02T08:59:01;51.45;;;25.35;;
80334;SDS011;69653;52.674;13.574;2024-03-02T09:01:26;54.72;;;24.98;;
80334;SDS011;69653;52.674;13.574;2024-03-02T09:03:52;47.13;;;24.08;;
80334;SDS011;69653;52.674;13.574;2024-03-02T09:06:17;54.43;;;25.27;;
80334;SDS011;69653;52.674;13.574;2024-03-02T09:08:42;57.23;;;26.83;;
80334;SDS011;69653;52.674;13.574;2024-03-02T09:11:08;52.67;;;26.23;;
80334;SDS011;69653;52.674;13.574;2024-03-02T09:13:34;50.30;;;25.15;;
80334;SDS011;69653;52.674;13.574;2024-03-02T09:15:59;48.73;;;24.10;;
80334;SDS011;69653;52.674;13.574;2024-03-02T09:18:25;50.70;;;25.83;;
80334;SDS011;69653;52.674;13.574;2024-03-02T09:20:50;47.33;;;23.73;;
80334;SDS011;69653;52.674;13.574;2024-03-02T09:23:15;51.47;;;24.30;;
80334;SDS011;69653;52.674;13.574;2024-03-02T09:25:40;50.47;;;24.37;;
80334;SDS011;69653;52.674;13.574;2024-03-02T09:28:05;50.47;;;24.53;;
80334;SDS011;69653;52.674;13.574;2024-03-02T09:30:32;54.20;;;27.38;;
80334;SDS011;69653;52.674;13.574;2024-03-02T09:32:57;44.40;;;23.67;;
80334;SDS011;69653;52.674;13.574;2024-03-02T09:35:22;45.63;;;23.70;;
80334;SDS011;69653;52.674;13.574;2024-03-02T09:37:47;44.13;;;23.73;;
80334;SDS011;69653;52.674;13.574;2024-03-02T09:40:13;43.80;;;23.70;;
80334;SDS011;69653;52.674;13.574;2024-03-02T09:42:38;45.17;;;23.20;;
80334;SDS011;69653;52.674;13.574;2024-03-02T09:45:04;49.15;;;24.50;;
80334;SDS011;69653;52.674;13.574;2024-03-02T09:47:30;44.90;;;22.23;;
80334;SDS011;69653;52.674;13.574;2024-03-02T09:49:55;46.90;;;24.07;;
80334;SDS011;69653;52.674;13.574;2024-03-02T09:52:21;47.50;;;24.47;;
80334;SDS011;69653;52.674;13.574;2024-03-02T09:54:47;51.03;;;24.85;;
80334;SDS011;69653;52.674;13.574;2024-03-02T09:57:12;45.43;;;24.67;;
80334;SDS011;69653;52.674;13.574;2024-03-02T09:59:37;45.13;;;25.27;;
80334;SDS011;69653;52.674;13.574;2024-03-02T10:02:03;44.70;;;23.53;;
80334;SDS011;69653;52.674;13.574;2024-03-02T10:04:29;43.60;;;22.73;;
80334;SDS011;69653;52.674;13.574;2024-03-02T10:07:10;47.60;;;22.40;;
80334;SDS011;69653;52.674;13.574;2024-03-02T10:09:38;44.40;;;22.50;;
80334;SDS011;69653;52.674;13.574;2024-03-02T10:12:04;44.13;;;22.63;;
80334;SDS011;69653;52.674;13.574;2024-03-02T10:14:30;42.97;;;22.20;;
80334;SDS011;69653;52.674;13.574;2024-03-02T10:16:55;39.03;;;20.40;;
80334;SDS011;69653;52.674;13.574;2024-03-02T10:19:26;40.40;;;22.38;;
80334;SDS011;69653;52.674;13.574;2024-03-02T10:21:52;38.73;;;19.20;;
80334;SDS011;69653;52.674;13.574;2024-03-02T10:24:18;34.53;;;18.10;;
80334;SDS011;69653;52.674;13.574;2024-03-02T10:26:43;35.70;;;18.75;;
80334;SDS011;69653;52.674;13.574;2024-03-02T10:29:09;35.90;;;18.13;;
80334;SDS011;69653;52.674;13.574;2024-03-02T10:31:36;35.30;;;17.92;;
80334;SDS011;69653;52.674;13.574;2024-03-02T10:34:01;37.22;;;18.73;;
80334;SDS011;69653;52.674;13.574;2024-03-02T10:36:27;32.53;;;17.73;;
80334;SDS011;69653;52.674;13.574;2024-03-02T10:38:53;34.60;;;16.85;;
80334;SDS011;69653;52.674;13.574;2024-03-02T10:41:22;33.28;;;17.98;;
80334;SDS011;69653;52.674;13.574;2024-03-02T10:43:48;31.75;;;17.60;;
80334;SDS011;69653;52.674;13.574;2024-03-02T10:46:13;32.03;;;17.73;;
80334;SDS011;69653;52.674;13.574;2024-03-02T10:48:39;37.00;;;18.35;;
80334;SDS011;69653;52.674;13.574;2024-03-02T10:51:05;32.30;;;15.90;;
80334;SDS011;69653;52.674;13.574;2024-03-02T10:53:30;32.40;;;17.67;;
80334;SDS011;69653;52.674;13.574;2024-03-02T10:55:57;35.03;;;17.08;;
80334;SDS011;69653;52.674;13.574;2024-03-02T10:58:27;34.15;;;18.85;;
80334;SDS011;69653;52.674;13.574;2024-03-02T11:00:55;31.02;;;16.08;;
80334;SDS011;69653;52.674;13.574;2024-03-02T11:03:20;30.73;;;16.42;;
80334;SDS011;69653;52.674;13.574;2024-03-02T11:05:45;29.30;;;16.87;;
80334;SDS011;69653;52.674;13.574;2024-03-02T11:08:12;30.15;;;16.77;;
80334;SDS011;69653;52.674;13.574;2024-03-02T11:10:41;27.77;;;15.27;;
80334;SDS011;69653;52.674;13.574;2024-03-02T11:13:11;30.52;;;15.50;;
80334;SDS011;69653;52.674;13.574;2024-03-02T11:15:36;29.80;;;16.55;;
80334;SDS011;69653;52.674;13.574;2024-03-02T11:18:03;25.73;;;13.98;;
80334;SDS011;69653;52.674;13.574;2024-03-02T11:20:30;27.30;;;13.98;;
80334;SDS011;69653;52.674;13.574;2024-03-02T11:22:55;29.08;;;14.52;;
80334;SDS011;69653;52.674;13.574;2024-03-02T11:25:25;28.52;;;15.27;;
80334;SDS011;69653;52.674;13.574;2024-03-02T11:33:03;27.88;;;14.82;;
80334;SDS011;69653;52.674;13.574;2024-03-02T11:35:37;28.73;;;13.80;;
80334;SDS011;69653;52.674;13.574;2024-03-02T11:38:03;24.65;;;13.27;;
80334;SDS011;69653;52.674;13.574;2024-03-02T11:40:28;27.15;;;14.43;;
80334;SDS011;69653;52.674;13.574;2024-03-02T11:42:53;23.73;;;12.97;;
80334;SDS011;69653;52.674;13.574;2024-03-02T11:45:22;24.92;;;14.75;;
80334;SDS011;69653;52.674;13.574;2024-03-02T11:47:51;23.55;;;13.27;;
80334;SDS011;69653;52.674;13.574;2024-03-02T11:52:43;23.90;;;12.63;;
80334;SDS011;69653;52.674;13.574;2024-03-02T11:55:09;24.48;;;13.52;;
80334;SDS011;69653;52.674;13.574;2024-03-02T11:57:34;27.77;;;13.98;;
80334;SDS011;69653;52.674;13.574;2024-03-02T12:00:00;20.98;;;12.48;;
80334;SDS011;69653;52.674;13.574;2024-03-02T12:02:28;22.38;;;12.55;;
80334;SDS011;69653;52.674;13.574;2024-03-02T12:04:54;20.83;;;12.10;;
80334;SDS011;69653;52.674;13.574;2024-03-02T12:07:19;20.70;;;11.53;;
80334;SDS011;69653;52.674;13.574;2024-03-02T12:09:48;25.13;;;13.95;;
80334;SDS011;69653;52.674;13.574;2024-03-02T12:12:14;22.02;;;12.50;;
80334;SDS011;69653;52.674;13.574;2024-03-02T12:14:49;22.00;;;12.43;;
80334;SDS011;69653;52.674;13.574;2024-03-02T12:17:15;21.80;;;12.18;;
80334;SDS011;69653;52.674;13.574;2024-03-02T12:19:40;27.77;;;14.70;;
80334;SDS011;69653;52.674;13.574;2024-03-02T12:22:06;22.88;;;13.30;;
80334;SDS011;69653;52.674;13.574;2024-03-02T12:24:31;22.50;;;12.23;;
80334;SDS011;69653;52.674;13.574;2024-03-02T12:26:57;23.63;;;13.43;;
80334;SDS011;69653;52.674;13.574;2024-03-02T12:29:22;21.80;;;11.60;;
80334;SDS011;69653;52.674;13.574;2024-03-02T12:31:49;21.33;;;11.65;;
80334;SDS011;69653;52.674;13.574;2024-03-02T12:34:15;21.48;;;12.18;;
80334;SDS011;69653;52.674;13.574;2024-03-02T12:36:40;20.15;;;11.30;;
80334;SDS011;69653;52.674;13.574;2024-03-02T12:39:07;21.15;;;11.88;;
80334;SDS011;69653;52.674;13.574;2024-03-02T12:41:33;22.95;;;11.52;;
80334;SDS011;69653;52.674;13.574;2024-03-02T12:44:00;20.92;;;12.85;;
80334;SDS011;69653;52.674;13.574;2024-03-02T12:46:25;21.10;;;11.67;;
80334;SDS011;69653;52.674;13.574;2024-03-02T12:48:51;20.40;;;11.73;;
80334;SDS011;69653;52.674;13.574;2024-03-02T12:51:16;24.08;;;12.00;;
80334;SDS011;69653;52.674;13.574;2024-03-02T12:53:41;19.53;;;10.70;;
80334;SDS011;69653;52.674;13.574;2024-03-02T12:56:07;22.57;;;12.37;;
80334;SDS011;69653;52.674;13.574;2024-03-02T12:58:38;19.73;;;11.93;;
80334;SDS011;69653;52.674;13.574;2024-03-02T13:01:07;20.45;;;11.25;;
80334;SDS011;69653;52.674;13.574;2024-03-02T13:03:40;21.55;;;11.88;;
80334;SDS011;69653;52.674;13.574;2024-03-02T13:06:05;19.88;;;11.32;;
80334;SDS011;69653;52.674;13.574;2024-03-02T13:08:32;19.67;;;11.13;;
80334;SDS011;69653;52.674;13.574;2024-03-02T13:10:57;20.40;;;11.20;;
80334;SDS011;69653;52.674;13.574;2024-03-02T13:13:22;19.40;;;10.80;;
80334;SDS011;69653;52.674;13.574;2024-03-02T13:15:48;19.90;;;10.97;;
80334;SDS011;69653;52.674;13.574;2024-03-02T13:18:13;22.23;;;11.90;;
80334;SDS011;69653;52.674;13.574;2024-03-02T13:20:38;19.30;;;11.77;;
80334;SDS011;69653;52.674;13.574;2024-03-02T13:23:04;23.35;;;11.75;;
80334;SDS011;69653;52.674;13.574;2024-03-02T13:25:30;19.97;;;11.07;;
80334;SDS011;69653;52.674;13.574;2024-03-02T13:27:56;18.42;;;10.25;;
80334;SDS011;69653;52.674;13.574;2024-03-02T13:30:21;20.87;;;11.23;;
80334;SDS011;69653;52.674;13.574;2024-03-02T13:32:47;20.13;;;11.03;;
80334;SDS011;69653;52.674;13.574;2024-03-02T13:35:12;20.70;;;11.33;;
80334;SDS011;69653;52.674;13.574;2024-03-02T13:37:37;17.60;;;10.20;;
80334;SDS011;69653;52.674;13.574;2024-03-02T13:40:02;19.43;;;9.80;;
80334;SDS011;69653;52.674;13.574;2024-03-02T13:42:29;16.23;;;9.40;;
80334;SDS011;69653;52.674;13.574;2024-03-02T13:44:55;17.67;;;11.00;;
80334;SDS011;69653;52.674;13.574;2024-03-02T13:47:20;19.00;;;10.57;;
80334;SDS011;69653;52.674;13.574;2024-03-02T13:49:46;20.20;;;11.20;;
80334;SDS011;69653;52.674;13.574;2024-03-02T13:52:13;18.92;;;10.73;;
80334;SDS011;69653;52.674;13.574;2024-03-02T13:54:42;21.13;;;10.50;;
80334;SDS011;69653;52.674;13.574;2024-03-02T13:57:08;18.95;;;10.40;;
80334;SDS011;69653;52.674;13.574;2024-03-02T13:59:34;19.90;;;10.63;;
80334;SDS011;69653;52.674;13.574;2024-03-02T14:02:00;20.00;;;10.73;;
80334;SDS011;69653;52.674;13.574;2024-03-02T14:04:26;18.45;;;9.68;;
80334;SDS011;69653;52.674;13.574;2024-03-02T14:06:51;18.23;;;10.50;;
80334;SDS011;69653;52.674;13.574;2024-03-02T14:09:18;17.27;;;10.45;;
80334;SDS011;69653;52.674;13.574;2024-03-02T14:11:45;19.05;;;10.00;;